Time;durP1;ratioP1;P1;durP2;ratioP2;P2;SDS_P1;SDS_P2;PMS_P1;PMS_P2;Temp;Humidity;BMP_temperature;BMP_pressure;BME280_temperature;BME280_humidity;BME280_pressure;Samples;Min_cycle;Max_cycle;Signal;HPM_P1;HPM_P2
2022/03/11 00:04:19;;;;;;;8.55;5.18;;;7.30;55.60;;;;;;5053717;28;20320;-67
2022/03/11 00:06:44;;;;;;;9.30;5.35;;;7.30;55.50;;;;;;5056500;28;20070;-67
2022/03/11 00:09:10;;;;;;;11.53;5.87;;;7.20;55.50;;;;;;5058104;28;20057;-69
2022/03/11 00:11:36;;;;;;;11.30;5.47;;;7.20;55.40;;;;;;5056969;28;20071;-68
2022/03/11 00:14:01;;;;;;;9.47;5.60;;;7.20;55.40;;;;;;5055780;28;20037;-68
2022/03/11 00:16:27;;;;;;;10.45;6.10;;;7.20;55.30;;;;;;5057180;28;20420;-68
2022/03/11 00:18:53;;;;;;;10.55;5.72;;;7.20;55.20;;;;;;5055506;28;20349;-68
2022/03/11 00:21:19;;;;;;;10.50;5.33;;;7.20;55.00;;;;;;5053673;28;20021;-67
2022/03/11 00:23:44;;;;;;;13.37;5.47;;;7.20;55.10;;;;;;5054836;28;20028;-67
2022/03/11 00:26:11;;;;;;;8.83;5.47;;;7.20;55.00;;;;;;5054381;28;20028;-67
2022/03/11 00:28:37;;;;;;;;;;;7.20;55.10;;;;;;5053299;28;20052;-67
2022/03/11 00:31:04;;;;;;;9.25;4.85;;;7.20;55.00;;;;;;5052809;28;20270;-69
2022/03/11 00:33:32;;;;;;;7.78;4.72;;;7.20;55.10;;;;;;5054347;28;20078;-67
2022/03/11 00:35:58;;;;;;;8.50;5.38;;;7.20;55.00;;;;;;5053817;28;20017;-67
2022/03/11 00:38:24;;;;;;;11.57;5.05;;;7.10;55.10;;;;;;5053976;28;20021;-68
2022/03/11 00:40:51;;;;;;;8.27;4.75;;;7.10;55.00;;;;;;5052902;28;20385;-67
2022/03/11 00:43:17;;;;;;;10.32;4.15;;;7.10;55.10;;;;;;5053650;28;20021;-67
2022/03/11 00:45:44;;;;;;;8.48;4.78;;;7.10;55.20;;;;;;5053214;28;20385;-69
2022/03/11 00:48:09;;;;;;;8.57;4.70;;;7.10;55.40;;;;;;5053778;28;20053;-67
2022/03/11 00:50:35;;;;;;;9.03;5.00;;;7.00;55.40;;;;;;5053774;28;20029;-66
2022/03/11 00:53:02;;;;;;;7.83;5.00;;;7.00;55.50;;;;;;5053689;28;20021;-68
2022/03/11 00:55:28;;;;;;;13.85;5.15;;;7.00;55.80;;;;;;5055496;28;20524;-67
2022/03/11 00:57:53;;;;;;;8.65;5.07;;;7.00;56.00;;;;;;5052359;28;20439;-67
2022/03/11 01:00:19;;;;;;;8.57;5.10;;;7.00;56.10;;;;;;5053376;28;20021;-69
2022/03/11 01:02:45;;;;;;;8.73;4.77;;;6.90;56.10;;;;;;5056025;28;20400;-68
2022/03/11 01:05:10;;;;;;;9.93;5.07;;;6.90;56.30;;;;;;5055147;28;20045;-67
2022/03/11 01:07:37;;;;;;;7.53;4.50;;;6.90;56.40;;;;;;5056289;28;20108;-67
2022/03/11 01:10:04;;;;;;;11.05;5.22;;;6.80;56.50;;;;;;5056760;28;20029;-66
2022/03/11 01:12:30;;;;;;;7.03;4.45;;;6.90;56.60;;;;;;5054427;28;20028;-67
2022/03/11 01:14:55;;;;;;;8.57;4.37;;;6.80;56.80;;;;;;5055138;28;20524;-66
2022/03/11 01:17:21;;;;;;;9.70;4.97;;;6.80;57.00;;;;;;5055239;28;20096;-67
2022/03/11 01:19:47;;;;;;;7.77;4.57;;;6.80;56.90;;;;;;5055142;28;20502;-67
2022/03/11 01:22:12;;;;;;;12.47;5.17;;;6.80;56.90;;;;;;5054245;28;20248;-66
2022/03/11 01:24:38;;;;;;;10.05;5.40;;;6.80;57.10;;;;;;5054850;28;20051;-67
2022/03/11 01:27:04;;;;;;;7.77;4.17;;;6.80;57.20;;;;;;5054940;28;20108;-66
2022/03/11 01:29:30;;;;;;;8.35;5.03;;;6.70;57.30;;;;;;5055033;28;20056;-66
2022/03/11 01:31:56;;;;;;;10.67;4.70;;;6.70;57.40;;;;;;5055212;28;20043;-67
2022/03/11 01:34:21;;;;;;;7.68;4.50;;;6.70;57.50;;;;;;5054832;28;20393;-68
2022/03/11 01:36:47;;;;;;;9.67;4.97;;;6.70;57.60;;;;;;5055557;28;20025;-67
2022/03/11 01:39:13;;;;;;;8.83;4.67;;;6.70;57.90;;;;;;5054330;28;20033;-67
2022/03/11 01:41:39;;;;;;;12.77;5.30;;;6.60;58.00;;;;;;5054320;28;20344;-68
2022/03/11 01:44:09;;;;;;;10.30;4.90;;;6.60;58.30;;;;;;5054451;28;20263;-68
2022/03/11 01:46:36;;;;;;;8.75;4.85;;;6.60;58.50;;;;;;5054068;28;20075;-67
2022/03/11 01:49:05;;;;;;;8.50;5.25;;;6.60;58.80;;;;;;5052903;28;20397;-67
2022/03/11 01:51:32;;;;;;;7.70;4.88;;;6.50;59.00;;;;;;5052601;28;20362;-67
2022/03/11 01:53:58;;;;;;;8.23;4.70;;;6.50;59.30;;;;;;5052931;28;20453;-67
2022/03/11 01:56:25;;;;;;;11.98;5.60;;;6.50;60.30;;;;;;5054196;28;20017;-68
2022/03/11 01:58:55;;;;;;;10.38;5.40;;;6.40;59.80;;;;;;5052807;28;20029;-67
2022/03/11 02:01:22;;;;;;;10.82;5.30;;;6.40;60.00;;;;;;5053735;28;20025;-67
2022/03/11 02:03:49;;;;;;;11.00;5.72;;;6.40;60.30;;;;;;5053181;28;20053;-67
2022/03/11 02:06:16;;;;;;;10.00;5.85;;;6.40;60.40;;;;;;5052290;28;20032;-66
2022/03/11 02:08:42;;;;;;;10.07;5.70;;;6.40;60.60;;;;;;5053047;28;20086;-68
2022/03/11 02:11:11;;;;;;;10.98;6.38;;;6.40;60.60;;;;;;5052007;28;20028;-67
2022/03/11 02:13:48;;;;;;;13.07;5.68;;;6.40;60.90;;;;;;5053127;28;20485;-67
2022/03/11 02:16:17;;;;;;;9.20;5.38;;;6.40;61.20;;;;;;5053245;28;20021;-67
2022/03/11 02:18:44;;;;;;;14.70;5.85;;;6.40;61.40;;;;;;5051831;28;20033;-67
2022/03/11 02:21:10;;;;;;;11.10;6.22;;;6.30;61.60;;;;;;5053424;28;20024;-67
2022/03/11 02:23:42;;;;;;;;;;;6.30;61.90;;;;;;5052783;28;20420;-67
2022/03/11 02:26:08;;;;;;;10.50;5.80;;;6.30;62.20;;;;;;5053498;28;19923;-67
2022/03/11 02:28:33;;;;;;;10.97;6.10;;;6.20;62.50;;;;;;5054084;28;20021;-67
2022/03/11 02:30:59;;;;;;;11.57;6.20;;;6.20;62.70;;;;;;5054886;28;20262;-67
2022/03/11 02:33:25;;;;;;;14.57;6.70;;;6.20;63.00;;;;;;5053687;28;20434;-67
2022/03/11 02:35:50;;;;;;;10.47;5.83;;;6.10;63.50;;;;;;5055929;28;20270;-67
2022/03/11 02:38:16;;;;;;;12.27;6.33;;;6.10;63.90;;;;;;5057270;28;20359;-67
2022/03/11 02:40:41;;;;;;;13.00;6.70;;;6.00;64.40;;;;;;5056505;28;20029;-67
2022/03/11 02:43:07;;;;;;;12.47;7.00;;;6.00;64.70;;;;;;5057411;28;20080;-67
2022/03/11 02:45:33;;;;;;;11.45;6.43;;;6.00;65.20;;;;;;5059446;28;20025;-68
2022/03/11 02:47:59;;;;;;;13.53;7.57;;;5.90;65.40;;;;;;5057569;28;20048;-67
2022/03/11 02:50:24;;;;;;;12.20;6.43;;;5.90;65.70;;;;;;5056843;28;20053;-67
2022/03/11 02:52:50;;;;;;;13.87;7.50;;;5.90;65.90;;;;;;5055906;28;20469;-67
2022/03/11 02:55:16;;;;;;;11.67;7.03;;;5.80;66.00;;;;;;5057642;28;20094;-68
2022/03/11 02:57:41;;;;;;;12.03;6.60;;;5.80;65.90;;;;;;5057733;28;20442;-68
2022/03/11 03:00:07;;;;;;;11.47;6.63;;;5.80;65.90;;;;;;5056782;28;20131;-67
2022/03/11 03:02:33;;;;;;;12.98;7.60;;;5.80;66.10;;;;;;5057880;28;20041;-67
2022/03/11 03:04:59;;;;;;;15.20;7.63;;;5.80;66.40;;;;;;5058349;28;20032;-67
2022/03/11 03:07:24;;;;;;;12.37;6.60;;;5.80;66.60;;;;;;5057962;28;20029;-67
2022/03/11 03:09:50;;;;;;;11.43;6.50;;;5.70;66.60;;;;;;5058043;28;20036;-67
2022/03/11 03:12:15;;;;;;;12.00;6.57;;;5.70;66.80;;;;;;5058308;28;20386;-67
2022/03/11 03:14:41;;;;;;;14.67;7.30;;;5.70;67.10;;;;;;5055500;28;20025;-67
2022/03/11 03:17:07;;;;;;;14.23;7.03;;;5.70;67.20;;;;;;5056023;28;20040;-67
2022/03/11 03:19:35;;;;;;;14.45;6.80;;;5.60;67.30;;;;;;5054695;28;20044;-67
2022/03/11 03:22:02;;;;;;;11.52;7.20;;;5.70;67.50;;;;;;5054150;28;20112;-67
2022/03/11 03:24:28;;;;;;;14.73;8.07;;;5.60;67.70;;;;;;5055477;28;20358;-68
2022/03/11 03:26:55;;;;;;;15.33;8.03;;;5.60;68.00;;;;;;5055093;28;20036;-67
2022/03/11 03:29:21;;;;;;;16.85;7.88;;;5.50;68.20;;;;;;5055372;28;20021;-67
2022/03/11 03:31:47;;;;;;;14.50;7.60;;;5.50;68.60;;;;;;5055295;28;20025;-68
2022/03/11 03:34:13;;;;;;;16.40;8.13;;;5.50;69.00;;;;;;5054527;28;20032;-67
2022/03/11 03:36:38;;;;;;;16.58;8.30;;;5.50;69.40;;;;;;5056344;28;20040;-67
2022/03/11 03:39:04;;;;;;;16.23;8.23;;;5.40;69.80;;;;;;5058046;28;20035;-69
2022/03/11 03:41:30;;;;;;;15.90;8.20;;;5.40;69.90;;;;;;5055249;28;20264;-68
2022/03/11 03:43:55;;;;;;;14.57;8.33;;;5.40;70.40;;;;;;5054151;28;20036;-68
2022/03/11 03:46:21;;;;;;;16.35;9.10;;;5.40;70.70;;;;;;5054156;28;20032;-68
2022/03/11 03:48:47;;;;;;;13.57;8.20;;;5.30;71.10;;;;;;5055611;28;20029;-67
2022/03/11 03:51:12;;;;;;;16.47;8.93;;;5.30;71.40;;;;;;5055284;28;20025;-67
2022/03/11 03:53:38;;;;;;;20.13;9.73;;;5.30;71.80;;;;;;5053479;28;20461;-67
2022/03/11 03:56:04;;;;;;;16.43;9.47;;;5.30;72.10;;;;;;5054813;28;20259;-66
2022/03/11 03:58:30;;;;;;;18.73;9.18;;;5.20;72.40;;;;;;5054669;28;20602;-67
2022/03/11 04:00:55;;;;;;;16.60;9.43;;;5.20;72.90;;;;;;5054010;28;20025;-66
2022/03/11 04:03:21;;;;;;;15.80;8.60;;;5.20;73.20;;;;;;5054497;28;20460;-67
2022/03/11 04:05:46;;;;;;;17.70;9.50;;;5.10;73.50;;;;;;5053109;28;20408;-67
2022/03/11 04:08:12;;;;;;;18.03;9.87;;;5.10;74.00;;;;;;5052903;28;20024;-66
2022/03/11 04:10:39;;;;;;;19.13;9.47;;;5.10;74.50;;;;;;5055088;28;20017;-68
2022/03/11 04:13:04;;;;;;;18.05;10.13;;;5.00;74.90;;;;;;5055210;28;20021;-67
2022/03/11 04:15:30;;;;;;;17.73;10.23;;;5.00;75.20;;;;;;5056611;28;20032;-68
2022/03/11 04:17:56;;;;;;;24.60;10.30;;;5.00;75.80;;;;;;5057503;28;20287;-68
2022/03/11 04:20:21;;;;;;;18.80;10.27;;;5.00;76.10;;;;;;5059554;28;20024;-66
2022/03/11 04:22:47;;;;;;;21.40;9.73;;;4.90;76.50;;;;;;5060433;28;20021;-67
2022/03/11 04:25:14;;;;;;;19.10;10.77;;;4.90;76.90;;;;;;5061534;28;20425;-64
2022/03/11 04:27:41;;;;;;;18.13;9.80;;;4.80;77.30;;;;;;5058786;28;20310;-66
2022/03/11 04:30:07;;;;;;;22.58;10.02;;;4.80;78.50;;;;;;5056752;28;20044;-65
2022/03/11 04:32:33;;;;;;;20.25;9.60;;;4.70;78.20;;;;;;5055705;28;20053;-66
2022/03/11 04:34:58;;;;;;;19.00;9.87;;;4.70;78.80;;;;;;5054961;28;20115;-65
2022/03/11 04:37:24;;;;;;;17.57;10.53;;;4.70;79.20;;;;;;5053956;28;20093;-65
2022/03/11 04:39:50;;;;;;;20.67;11.87;;;4.70;79.60;;;;;;5053679;28;20025;-65
2022/03/11 04:42:15;;;;;;;21.23;11.87;;;4.60;80.10;;;;;;5052338;28;20029;-65
2022/03/11 04:44:41;;;;;;;23.63;11.53;;;4.60;80.70;;;;;;5052434;28;20481;-66
2022/03/11 04:47:07;;;;;;;20.90;10.37;;;4.60;81.10;;;;;;5053179;28;20431;-67
2022/03/11 04:49:32;;;;;;;19.57;11.37;;;4.60;81.90;;;;;;5052789;28;20021;-65
2022/03/11 04:51:58;;;;;;;22.60;10.07;;;4.50;82.10;;;;;;5053657;28;20032;-65
2022/03/11 04:54:24;;;;;;;23.20;10.70;;;4.50;82.60;;;;;;5054018;28;20039;-66
2022/03/11 04:56:49;;;;;;;18.10;10.60;;;4.50;83.20;;;;;;5053671;28;20385;-66
2022/03/11 04:59:24;;;;;;;19.73;10.67;;;4.50;83.90;;;;;;5054340;28;20025;-66
2022/03/11 05:01:50;;;;;;;21.05;11.75;;;4.40;84.60;;;;;;5053358;28;20382;-66
2022/03/11 05:04:17;;;;;;;17.80;10.83;;;4.40;85.30;;;;;;5054490;28;20086;-66
2022/03/11 05:06:42;;;;;;;;;;;4.30;86.00;;;;;;5055468;28;20370;-66
2022/03/11 05:09:08;;;;;;;18.00;10.35;;;4.30;86.70;;;;;;5053518;28;19905;-66
2022/03/11 05:11:33;;;;;;;21.97;11.53;;;4.30;87.30;;;;;;5054137;28;20047;-66
2022/03/11 05:13:59;;;;;;;25.80;12.93;;;4.30;88.10;;;;;;5053448;28;20032;-66
2022/03/11 05:16:25;;;;;;;21.17;11.73;;;4.20;88.80;;;;;;5053408;28;20260;-66
2022/03/11 05:18:53;;;;;;;22.47;12.07;;;4.20;90.00;;;;;;5053293;28;20021;-66
2022/03/11 05:21:19;;;;;;;21.30;11.38;;;4.20;90.10;;;;;;5053272;28;20021;-66
2022/03/11 05:23:45;;;;;;;20.48;11.63;;;4.10;90.30;;;;;;5051805;28;20021;-66
2022/03/11 05:26:24;;;;;;;23.52;11.95;;;4.10;90.70;;;;;;5053172;28;20393;-65
2022/03/11 05:28:55;;;;;;;24.80;12.07;;;4.10;91.30;;;;;;5053633;28;20025;-65
2022/03/11 05:31:22;;;;;;;24.10;12.15;;;4.10;91.60;;;;;;5057140;28;20098;-65
2022/03/11 05:33:48;;;;;;;21.73;12.48;;;4.00;92.20;;;;;;5058698;28;20104;-65
2022/03/11 05:36:14;;;;;;;19.65;11.60;;;4.00;92.30;;;;;;5059782;28;20426;-66
2022/03/11 05:38:40;;;;;;;24.65;12.55;;;4.00;92.80;;;;;;5058042;28;20477;-66
2022/03/11 05:41:06;;;;;;;25.07;12.03;;;4.00;92.80;;;;;;5058719;28;20059;-65
2022/03/11 05:43:31;;;;;;;25.17;12.03;;;4.00;93.30;;;;;;5057960;28;20158;-67
2022/03/11 05:45:57;;;;;;;21.67;11.53;;;4.00;93.30;;;;;;5053496;28;20025;-66
2022/03/11 05:48:22;;;;;;;24.00;12.67;;;4.00;93.20;;;;;;5053996;28;20530;-65
2022/03/11 05:50:48;;;;;;;24.10;12.13;;;3.90;93.30;;;;;;5054119;28;20025;-65
2022/03/11 05:53:15;;;;;;;21.83;11.43;;;3.90;93.70;;;;;;5051486;28;20029;-65
2022/03/11 05:55:41;;;;;;;23.25;11.70;;;4.00;94.00;;;;;;5052802;28;20029;-65
2022/03/11 05:58:06;;;;;;;23.77;12.48;;;3.90;93.80;;;;;;5052927;28;20018;-65
2022/03/11 06:00:32;;;;;;;23.27;12.70;;;3.90;94.00;;;;;;5051532;28;20075;-65
2022/03/11 06:02:58;;;;;;;23.13;11.27;;;3.90;94.40;;;;;;5053214;28;20421;-64
2022/03/11 06:05:24;;;;;;;22.03;12.20;;;3.90;94.30;;;;;;5051529;28;20071;-63
2022/03/11 06:07:49;;;;;;;23.00;12.35;;;3.90;94.60;;;;;;5052526;28;20563;-65
2022/03/11 06:10:15;;;;;;;24.00;12.47;;;3.80;94.40;;;;;;5052831;28;20386;-61
2022/03/11 06:12:41;;;;;;;21.60;11.33;;;3.90;94.90;;;;;;5054099;28;20025;-63
2022/03/11 06:15:08;;;;;;;24.63;11.73;;;3.80;95.00;;;;;;5055537;28;20670;-64
2022/03/11 06:17:34;;;;;;;26.33;12.90;;;3.80;94.90;;;;;;5056763;28;20053;-65
2022/03/11 06:20:00;;;;;;;23.07;12.37;;;3.80;95.10;;;;;;5056710;28;20052;-64
2022/03/11 06:22:25;;;;;;;22.80;12.00;;;3.80;95.20;;;;;;5056710;28;20028;-63
2022/03/11 06:24:51;;;;;;;30.87;12.33;;;3.80;95.10;;;;;;5056717;28;20079;-64
2022/03/11 06:27:16;;;;;;;22.73;12.37;;;3.90;95.20;;;;;;5056603;28;20021;-66
2022/03/11 06:29:42;;;;;;;23.10;11.47;;;3.90;95.10;;;;;;5056290;28;20021;-65
2022/03/11 06:32:08;;;;;;;22.07;12.20;;;3.90;95.00;;;;;;5054762;28;20021;-65
2022/03/11 06:34:34;;;;;;;22.33;11.93;;;3.90;94.90;;;;;;5053883;28;20036;-63
2022/03/11 06:36:59;;;;;;;24.77;12.37;;;3.90;95.10;;;;;;5054840;28;20071;-63
2022/03/11 06:39:25;;;;;;;20.93;11.77;;;3.90;95.10;;;;;;5054906;28;20028;-64
2022/03/11 06:41:50;;;;;;;23.53;14.00;;;3.90;95.10;;;;;;5054478;28;20413;-64
2022/03/11 06:44:16;;;;;;;21.57;12.57;;;3.90;94.90;;;;;;5054506;28;20081;-64
2022/03/11 06:46:42;;;;;;;23.90;11.67;;;3.90;95.00;;;;;;5055587;28;20029;-66
2022/03/11 06:49:08;;;;;;;23.73;12.00;;;4.00;94.60;;;;;;5054860;28;20029;-68
2022/03/11 06:51:33;;;;;;;23.80;12.43;;;4.00;94.70;;;;;;5057017;28;20037;-66
2022/03/11 06:53:59;;;;;;;25.97;12.80;;;4.00;94.30;;;;;;5055820;28;20393;-64
2022/03/11 06:56:25;;;;;;;24.07;12.20;;;4.10;94.40;;;;;;5055859;28;20500;-64
2022/03/11 06:58:51;;;;;;;26.37;13.20;;;4.10;94.50;;;;;;5055849;28;20262;-66
2022/03/11 07:01:18;;;;;;;25.67;13.15;;;4.10;94.40;;;;;;5055784;28;20116;-67
2022/03/11 07:03:43;;;;;;;;;;;4.10;94.50;;;;;;5056134;28;20144;-69
2022/03/11 07:06:09;;;;;;;23.33;12.25;;;4.10;94.50;;;;;;5055152;28;19915;-68
2022/03/11 07:08:35;;;;;;;28.80;13.77;;;4.20;94.60;;;;;;5055858;28;20112;-68
2022/03/11 07:11:00;;;;;;;23.80;12.80;;;4.30;94.40;;;;;;5057091;28;20363;-68
2022/03/11 07:13:26;;;;;;;22.90;12.03;;;4.40;94.20;;;;;;5056014;28;20021;-66
2022/03/11 07:15:52;;;;;;;23.35;11.35;;;4.50;94.30;;;;;;5055334;28;20021;-65
2022/03/11 07:18:18;;;;;;;22.10;11.63;;;4.50;94.30;;;;;;5055400;28;20025;-66
2022/03/11 07:20:43;;;;;;;26.70;13.00;;;4.50;93.50;;;;;;5055693;28;20135;-65
2022/03/11 07:23:09;;;;;;;24.53;12.67;;;4.60;93.10;;;;;;5054779;28;20051;-66
2022/03/11 07:25:36;;;;;;;25.47;12.53;;;4.60;92.90;;;;;;5055708;28;20036;-65
2022/03/11 07:28:02;;;;;;;22.73;12.50;;;4.70;92.90;;;;;;5055677;28;20021;-66
2022/03/11 07:30:27;;;;;;;21.63;12.10;;;4.70;92.50;;;;;;5053928;28;20071;-65
2022/03/11 07:32:53;;;;;;;22.50;12.03;;;4.80;92.20;;;;;;5055166;28;20477;-67
2022/03/11 07:35:19;;;;;;;24.10;12.37;;;4.90;91.80;;;;;;5055199;28;20537;-66
2022/03/11 07:37:44;;;;;;;24.67;12.45;;;4.90;91.80;;;;;;5055113;28;20047;-66
2022/03/11 07:40:11;;;;;;;24.07;11.90;;;4.90;91.90;;;;;;5055156;28;20033;-67
2022/03/11 07:42:42;;;;;;;26.95;12.05;;;5.00;91.70;;;;;;5054842;28;20028;-67
2022/03/11 07:45:11;;;;;;;22.33;11.90;;;5.00;91.30;;;;;;5053465;28;20354;-66
2022/03/11 07:47:37;;;;;;;20.25;11.70;;;5.10;91.10;;;;;;5053653;28;20033;-66
2022/03/11 07:50:03;;;;;;;;;;;5.20;90.90;;;;;;5054987;28;20417;-66
2022/03/11 07:52:29;;;;;;;23.77;11.80;;;5.20;90.70;;;;;;5054815;28;19911;-66
2022/03/11 07:54:54;;;;;;;21.87;13.00;;;5.20;90.30;;;;;;5054644;28;20048;-67
2022/03/11 07:57:20;;;;;;;25.43;12.80;;;5.20;90.20;;;;;;5054816;28;20473;-66
2022/03/11 07:59:46;;;;;;;22.87;11.73;;;5.30;90.20;;;;;;5054801;28;20020;-66
2022/03/11 08:02:11;;;;;;;23.40;12.55;;;5.30;90.10;;;;;;5057204;28;20445;-68
2022/03/11 08:04:38;;;;;;;21.40;11.60;;;5.30;89.90;;;;;;5057706;28;20029;-65
2022/03/11 08:07:06;;;;;;;21.13;11.70;;;5.40;89.60;;;;;;5055539;28;20021;-68
2022/03/11 08:09:33;;;;;;;23.58;13.18;;;5.40;88.90;;;;;;5054592;28;20032;-66
2022/03/11 08:11:59;;;;;;;20.85;11.55;;;5.50;88.70;;;;;;5054346;28;20033;-66
2022/03/11 08:14:24;;;;;;;18.80;11.50;;;5.60;88.60;;;;;;5054185;28;20377;-66
2022/03/11 08:16:50;;;;;;;23.30;11.47;;;5.60;87.70;;;;;;5054658;28;20119;-66
2022/03/11 08:19:15;;;;;;;19.63;11.67;;;5.70;87.30;;;;;;5054324;28;20033;-68
2022/03/11 08:21:41;;;;;;;21.23;10.93;;;5.80;86.80;;;;;;5055147;28;20119;-68
2022/03/11 08:24:07;;;;;;;19.17;11.50;;;5.90;86.10;;;;;;5054041;28;20021;-66
2022/03/11 08:26:33;;;;;;;21.60;11.32;;;6.00;85.30;;;;;;5052956;28;20421;-68
2022/03/11 08:28:58;;;;;;;22.53;12.20;;;6.10;85.40;;;;;;5053124;28;20478;-65
2022/03/11 08:31:24;;;;;;;21.00;11.43;;;6.10;85.30;;;;;;5053938;28;20389;-65
2022/03/11 08:33:49;;;;;;;20.23;11.40;;;6.20;84.90;;;;;;5053968;28;20467;-65
2022/03/11 08:36:15;;;;;;;21.37;10.80;;;6.20;83.60;;;;;;5052973;28;20104;-66
2022/03/11 08:38:41;;;;;;;24.95;10.90;;;6.20;83.60;;;;;;5052575;28;20025;-66
2022/03/11 08:41:08;;;;;;;22.15;11.38;;;6.30;83.20;;;;;;5053423;28;20025;-65
2022/03/11 08:43:38;;;;;;;24.77;11.57;;;6.30;82.60;;;;;;5054211;28;20537;-66
2022/03/11 08:46:07;;;;;;;23.67;12.27;;;6.40;82.10;;;;;;5053944;28;20108;-65
2022/03/11 08:48:33;;;;;;;21.15;11.40;;;6.50;81.80;;;;;;5053961;28;20470;-68
2022/03/11 08:50:59;;;;;;;21.40;11.18;;;6.70;81.10;;;;;;5053725;28;20032;-66
2022/03/11 08:53:24;;;;;;;19.17;11.27;;;6.70;80.30;;;;;;5051963;28;20025;-64
2022/03/11 08:55:50;;;;;;;24.17;11.90;;;6.80;79.60;;;;;;5053674;28;20024;-64
2022/03/11 08:58:16;;;;;;;18.77;10.17;;;6.90;78.50;;;;;;5053497;28;20358;-62
2022/03/11 09:00:42;;;;;;;20.23;11.40;;;7.00;77.90;;;;;;5052049;28;20020;-64
2022/03/11 09:03:07;;;;;;;20.25;10.95;;;7.00;77.40;;;;;;5053247;28;20029;-64
2022/03/11 09:05:33;;;;;;;19.27;11.17;;;7.20;76.50;;;;;;5053526;28;20036;-65
2022/03/11 09:07:59;;;;;;;21.97;9.97;;;7.30;75.70;;;;;;5054229;28;20029;-64
2022/03/11 09:10:25;;;;;;;;;;;7.40;75.20;;;;;;5054051;28;20044;-64
2022/03/11 09:12:51;;;;;;;20.52;10.75;;;7.50;75.00;;;;;;5053237;28;19905;-63
2022/03/11 09:15:16;;;;;;;19.73;10.23;;;8.70;72.60;;;;;;5053360;28;20025;-64
2022/03/11 09:17:45;;;;;;;17.53;10.80;;;10.90;66.60;;;;;;5053147;28;20071;-62
2022/03/11 09:20:12;;;;;;;20.33;10.73;;;13.50;59.40;;;;;;5051802;28;20028;-64
2022/03/11 09:22:39;;;;;;;20.85;10.68;;;15.00;56.10;;;;;;5053298;28;20385;-64
2022/03/11 09:25:07;;;;;;;15.68;9.63;;;16.80;51.50;;;;;;5053841;28;20025;-63
2022/03/11 09:27:33;;;;;;;20.50;10.60;;;16.60;50.30;;;;;;5054317;28;20033;-64
2022/03/11 09:29:59;;;;;;;;;;;17.70;49.40;;;;;;5054782;28;20057;-64
2022/03/11 09:32:25;;;;;;;17.08;11.07;;;18.00;47.90;;;;;;5056162;28;19955;-64
2022/03/11 09:34:52;;;;;;;18.25;11.30;;;18.50;46.80;;;;;;5055440;28;20032;-64
2022/03/11 09:37:18;;;;;;;19.15;10.98;;;18.70;45.80;;;;;;5057133;28;20044;-64
2022/03/11 09:39:43;;;;;;;21.13;11.50;;;19.50;45.40;;;;;;5054545;28;20025;-63
2022/03/11 09:42:10;;;;;;;14.20;10.43;;;20.10;44.00;;;;;;5052997;28;20021;-63
2022/03/11 09:44:37;;;;;;;21.55;11.20;;;21.00;43.50;;;;;;5053981;28;20040;-63
2022/03/11 09:47:04;;;;;;;14.25;10.95;;;21.40;42.10;;;;;;5056534;28;20489;-66
2022/03/11 09:49:34;;;;;;;17.08;10.77;;;21.10;41.70;;;;;;5059992;28;20041;-66
2022/03/11 09:52:00;;;;;;;19.17;11.18;;;20.80;41.90;;;;;;5058669;28;20021;-64
2022/03/11 09:54:26;;;;;;;16.02;11.55;;;19.80;42.60;;;;;;5059711;28;20107;-62
2022/03/11 09:56:53;;;;;;;16.80;11.07;;;20.20;43.00;;;;;;5057458;28;20107;-64
2022/03/11 09:59:19;;;;;;;17.33;11.38;;;19.70;42.80;;;;;;5057260;28;20096;-63
2022/03/11 10:01:44;;;;;;;16.85;10.82;;;19.00;43.70;;;;;;5057724;28;20108;-62
2022/03/11 10:04:11;;;;;;;19.05;10.90;;;18.70;44.00;;;;;;5056486;28;20469;-65
2022/03/11 10:06:39;;;;;;;18.60;12.32;;;18.90;44.30;;;;;;5057617;28;20021;-63
2022/03/11 10:09:07;;;;;;;14.63;11.43;;;19.20;44.20;;;;;;5055527;28;20493;-63
2022/03/11 10:11:35;;;;;;;16.08;10.93;;;19.10;43.50;;;;;;5056743;28;20071;-66
2022/03/11 10:14:06;;;;;;;16.25;11.50;;;20.60;42.90;;;;;;5055075;28;20025;-64
2022/03/11 10:16:33;;;;;;;18.70;11.18;;;21.00;41.50;;;;;;5055239;28;20108;-64
2022/03/11 10:19:06;;;;;;;13.88;11.43;;;20.50;42.10;;;;;;5056680;28;20482;-63
2022/03/11 10:21:36;;;;;;;17.33;11.10;;;20.70;41.90;;;;;;5057040;28;20017;-64
2022/03/11 10:24:07;;;;;;;18.50;11.35;;;21.20;41.40;;;;;;5056296;28;20025;-63
2022/03/11 10:26:36;;;;;;;17.48;11.27;;;20.00;42.00;;;;;;5056100;28;20021;-64
2022/03/11 10:29:03;;;;;;;16.50;11.77;;;19.10;43.30;;;;;;5056349;28;20063;-64
2022/03/11 10:31:34;;;;;;;14.75;11.32;;;19.50;43.10;;;;;;5054923;28;20029;-65
2022/03/11 10:34:23;;;;;;;16.05;10.75;;;20.50;42.20;;;;;;5056322;28;20021;-63
2022/03/11 10:36:56;;;;;;;15.88;11.50;;;20.30;42.60;;;;;;5056464;28;20017;-64
2022/03/11 10:39:28;;;;;;;15.30;10.52;;;20.30;42.00;;;;;;5056246;28;20389;-63
2022/03/11 10:41:57;;;;;;;16.67;10.90;;;20.30;42.00;;;;;;5056575;28;20025;-64
2022/03/11 10:44:26;;;;;;;18.10;10.85;;;20.00;42.20;;;;;;5055970;28;20036;-65
2022/03/11 10:46:56;;;;;;;17.98;11.50;;;19.90;42.00;;;;;;5055819;28;20363;-65
2022/03/11 10:49:34;;;;;;;12.15;10.02;;;20.90;42.10;;;;;;5056173;28;20028;-64
2022/03/11 10:52:01;;;;;;;13.60;10.43;;;20.90;41.10;;;;;;5056045;28;20029;-63
2022/03/11 10:54:29;;;;;;;17.45;10.90;;;19.80;42.20;;;;;;5056173;28;20044;-62
2022/03/11 10:56:57;;;;;;;17.52;11.52;;;19.20;43.00;;;;;;5055765;28;20025;-63
2022/03/11 10:59:26;;;;;;;15.68;10.82;;;19.00;43.80;;;;;;5055619;28;20381;-63
2022/03/11 11:01:52;;;;;;;17.67;10.60;;;19.30;43.00;;;;;;5057768;28;20488;-64
2022/03/11 11:04:19;;;;;;;17.20;12.43;;;19.40;43.20;;;;;;5058753;28;20032;-64
2022/03/11 11:06:46;;;;;;;18.30;10.98;;;19.40;42.80;;;;;;5058267;28;20029;-65
2022/03/11 11:09:13;;;;;;;19.75;10.57;;;18.90;43.20;;;;;;5056489;28;20478;-63
2022/03/11 11:11:40;;;;;;;17.55;11.73;;;17.90;44.20;;;;;;5056335;28;20049;-64
2022/03/11 11:14:08;;;;;;;16.65;11.23;;;16.60;45.60;;;;;;5056057;28;20025;-66
2022/03/11 11:16:40;;;;;;;22.45;11.18;;;15.60;47.40;;;;;;5056347;28;20484;-65
2022/03/11 11:19:12;;;;;;;15.05;11.10;;;14.90;48.80;;;;;;5055527;28;20025;-63
2022/03/11 11:21:40;;;;;;;18.52;10.32;;;14.40;49.30;;;;;;5055403;28;20013;-64
2022/03/11 11:24:15;;;;;;;15.63;10.98;;;13.70;50.20;;;;;;5055811;28;20079;-68
2022/03/11 11:26:45;;;;;;;17.02;10.43;;;13.40;51.10;;;;;;5056333;28;20032;-67
2022/03/11 11:29:11;;;;;;;19.50;11.20;;;12.80;51.90;;;;;;5056505;28;20067;-66
2022/03/11 11:31:41;;;;;;;20.60;10.18;;;12.50;52.80;;;;;;5055538;28;20051;-64
2022/03/11 11:34:30;;;;;;;19.40;10.05;;;12.20;53.10;;;;;;5055696;28;20075;-64
2022/03/11 11:36:56;;;;;;;19.92;9.98;;;12.10;53.40;;;;;;5056960;28;20097;-64
2022/03/11 11:39:34;;;;;;;21.33;9.52;;;11.90;53.30;;;;;;5055976;28;20044;-64
2022/03/11 11:42:10;;;;;;;16.10;9.40;;;11.90;53.80;;;;;;5055686;28;20033;-64
2022/03/11 11:44:37;;;;;;;17.13;9.55;;;11.80;53.80;;;;;;5055494;28;20051;-64
2022/03/11 11:47:21;;;;;;;16.83;9.73;;;11.90;53.70;;;;;;5056697;28;20020;-64
2022/03/11 11:49:52;;;;;;;14.63;9.73;;;11.90;53.70;;;;;;5055949;28;20087;-62
2022/03/11 11:52:29;;;;;;;18.73;10.38;;;11.90;53.80;;;;;;5055244;28;20112;-63
2022/03/11 11:55:19;;;;;;;18.42;10.27;;;12.00;53.90;;;;;;5055921;28;20025;-63
2022/03/11 11:57:46;;;;;;;20.35;10.60;;;12.00;53.60;;;;;;5056522;28;20070;-63
2022/03/11 12:00:26;;;;;;;17.92;9.50;;;12.00;53.90;;;;;;5057968;28;20028;-65
2022/03/11 12:02:55;;;;;;;19.33;9.82;;;12.10;53.70;;;;;;5074238;22;21119;-69
2022/03/11 12:05:46;;;;;;;18.90;9.77;;;12.10;53.40;;;;;;5074459;28;20029;-70
2022/03/11 12:08:33;;;;;;;19.00;9.90;;;12.20;53.70;;;;;;5074795;28;20043;-71
2022/03/11 12:11:00;;;;;;;17.00;10.15;;;12.10;53.20;;;;;;5073491;28;20024;-73
2022/03/11 12:13:37;;;;;;;15.82;9.20;;;12.20;53.20;;;;;;5073150;28;20039;-71
2022/03/11 12:16:04;;;;;;;16.38;9.63;;;12.30;53.10;;;;;;5073325;28;20039;-72
2022/03/11 12:18:42;;;;;;;14.63;8.95;;;12.30;53.00;;;;;;5074266;28;20112;-71
2022/03/11 12:21:21;;;;;;;17.83;9.05;;;12.30;53.00;;;;;;5083363;28;20021;-72
2022/03/11 12:23:48;;;;;;;15.02;9.57;;;12.40;53.10;;;;;;5075427;28;20504;-72
2022/03/11 12:26:14;;;;;;;16.10;8.32;;;12.40;52.60;;;;;;5074882;28;20024;-71
2022/03/11 12:28:42;;;;;;;;;;;12.40;52.80;;;;;;5073827;28;20484;-71
2022/03/11 12:31:21;;;;;;;14.02;8.90;;;12.60;52.70;;;;;;5073018;28;19991;-72
2022/03/11 12:33:48;;;;;;;14.85;8.20;;;12.60;52.40;;;;;;5072679;28;20441;-71
2022/03/11 12:36:19;;;;;;;18.30;8.95;;;12.60;52.90;;;;;;5073047;28;20136;-70
2022/03/11 12:38:48;;;;;;;15.77;8.95;;;12.60;52.50;;;;;;5074377;28;20027;-71
2022/03/11 12:41:21;;;;;;;17.70;9.30;;;12.70;52.40;;;;;;5074713;28;20047;-72
2022/03/11 12:43:47;;;;;;;19.02;9.73;;;12.80;52.40;;;;;;5072688;28;20065;-71